Baotou, China
Current Conditions -  °F | °C
As of 11:00 PM on Sunday 21 Dec 2014 (Local Time) from ZBHH Reporting Station
Clear Clear  
Wind Chill: -5°   Ceiling: Unl
Heat Index:   Visibility: 6mi
Dew Point:   Wind: 7mph
Humidity: 72%   Direction: 60°ENE
Pressure: 30.27"   Gusts: NA
Location:  40.4°N, 109.59°E
Report Text: ZBHH 211500Z 06003MPS 020V110 CAVOK M14/M18 Q1025 NOSIG
Loading
Personal Weather Stations






























Interactive Weather Map New forecast layout! Learn more

10-Day Weather Forecast

Advertisements
Track Severe Weather on mobile